Las Vegas, Nevada
Traffic Map
Current Weather Conditions
Las Vegas, Nevada
Few Clouds
Few Clouds

Feels Like: 5°
Wind Chill: Ceiling: Unl
Heat Index: Visibility: 10mi
Dew Point: -12° Wind: 10mph
Humidity: 24% Direction: 20° (NNE)
Pressure: 30.16in Gusts: 0mph
Raw Report DataKLAS 241656Z 02009KT 10SM FEW150 FEW250 08/M12 A3016 RMK AO2 SLP211 T00781117
Traffic Incident Summary
Active as of:
Severity:
Category:
InformationThere was an issue retrieving the traffic information for this location. Please try a different location or try again shortly.
Advertisements
Track Severe Weather on mobile